sensor_id;sensor_type;location;lat;lon;timestamp;pressure;altitude;pressure_sealevel;temperature;humidity
56604;BME280;42486;47.478;19.036;2022-07-17T00:01:21;100817.84;;;19.47;42.13
56604;BME280;42486;47.478;19.036;2022-07-17T00:04:27;100819.97;;;19.44;42.13
56604;BME280;42486;47.478;19.036;2022-07-17T00:07:30;100825.09;;;19.37;42.37
56604;BME280;42486;47.478;19.036;2022-07-17T00:10:34;100828.03;;;19.26;42.61
56604;BME280;42486;47.478;19.036;2022-07-17T00:13:41;100829.53;;;19.28;42.68
56604;BME280;42486;47.478;19.036;2022-07-17T00:16:46;100833.78;;;19.21;42.84
56604;BME280;42486;47.478;19.036;2022-07-17T00:19:49;100838.59;;;19.18;42.85
56604;BME280;42486;47.478;19.036;2022-07-17T00:22:51;100835.56;;;19.12;42.90
56604;BME280;42486;47.478;19.036;2022-07-17T00:25:54;100841.97;;;19.02;43.21
56604;BME280;42486;47.478;19.036;2022-07-17T00:29:02;100838.62;;;19.00;43.23
56604;BME280;42486;47.478;19.036;2022-07-17T00:32:13;100834.66;;;19.04;43.32
56604;BME280;42486;47.478;19.036;2022-07-17T00:35:17;100831.16;;;18.95;43.49
56604;BME280;42486;47.478;19.036;2022-07-17T00:38:21;100840.41;;;18.91;43.62
56604;BME280;42486;47.478;19.036;2022-07-17T00:41:25;100833.59;;;18.88;43.69
56604;BME280;42486;47.478;19.036;2022-07-17T00:44:40;100838.34;;;18.85;43.93
56604;BME280;42486;47.478;19.036;2022-07-17T00:47:50;100846.97;;;18.87;43.94
56604;BME280;42486;47.478;19.036;2022-07-17T00:50:56;100845.78;;;18.81;44.05
56604;BME280;42486;47.478;19.036;2022-07-17T00:53:59;100847.16;;;18.67;44.68
56604;BME280;42486;47.478;19.036;2022-07-17T00:57:13;100855.22;;;18.66;44.75
56604;BME280;42486;47.478;19.036;2022-07-17T01:00:16;100852.97;;;18.53;45.20
56604;BME280;42486;47.478;19.036;2022-07-17T01:03:20;100844.56;;;18.58;45.16
56604;BME280;42486;47.478;19.036;2022-07-17T01:06:25;100856.47;;;18.54;45.25
56604;BME280;42486;47.478;19.036;2022-07-17T01:09:29;100855.16;;;18.58;45.30
56604;BME280;42486;47.478;19.036;2022-07-17T01:12:44;100854.34;;;18.57;45.36
56604;BME280;42486;47.478;19.036;2022-07-17T01:15:52;100860.16;;;18.43;45.70
56604;BME280;42486;47.478;19.036;2022-07-17T01:18:57;100856.97;;;18.39;45.98
56604;BME280;42486;47.478;19.036;2022-07-17T01:22:01;100862.72;;;18.35;46.14
56604;BME280;42486;47.478;19.036;2022-07-17T01:25:09;100860.94;;;18.35;46.34
56604;BME280;42486;47.478;19.036;2022-07-17T01:28:12;100864.84;;;18.31;46.43
56604;BME280;42486;47.478;19.036;2022-07-17T01:31:17;100864.47;;;18.26;46.55
56604;BME280;42486;47.478;19.036;2022-07-17T01:34:20;100864.25;;;18.19;46.74
56604;BME280;42486;47.478;19.036;2022-07-17T01:37:23;100861.94;;;18.07;47.15
56604;BME280;42486;47.478;19.036;2022-07-17T01:40:30;100860.56;;;18.02;47.11
56604;BME280;42486;47.478;19.036;2022-07-17T01:43:36;100865.16;;;18.00;46.97
56604;BME280;42486;47.478;19.036;2022-07-17T01:46:42;100866.91;;;17.92;47.61
56604;BME280;42486;47.478;19.036;2022-07-17T01:49:48;100872.75;;;17.95;47.27
56604;BME280;42486;47.478;19.036;2022-07-17T01:52:51;100881.81;;;17.93;47.36
56604;BME280;42486;47.478;19.036;2022-07-17T01:55:53;100879.59;;;17.88;47.38
56604;BME280;42486;47.478;19.036;2022-07-17T01:59:00;100877.25;;;17.85;47.42
56604;BME280;42486;47.478;19.036;2022-07-17T02:02:05;100885.47;;;17.82;47.50
56604;BME280;42486;47.478;19.036;2022-07-17T02:05:26;100882.84;;;17.82;47.66
56604;BME280;42486;47.478;19.036;2022-07-17T02:09:04;100886.59;;;17.79;47.80
56604;BME280;42486;47.478;19.036;2022-07-17T02:12:08;100898.28;;;17.77;48.03
56604;BME280;42486;47.478;19.036;2022-07-17T02:15:10;100898.69;;;17.72;48.22
56604;BME280;42486;47.478;19.036;2022-07-17T02:18:13;100898.41;;;17.75;48.28
56604;BME280;42486;47.478;19.036;2022-07-17T02:21:16;100903.31;;;17.60;48.58
56604;BME280;42486;47.478;19.036;2022-07-17T02:24:19;100911.81;;;17.64;48.56
56604;BME280;42486;47.478;19.036;2022-07-17T02:27:24;100914.87;;;17.59;48.43
56604;BME280;42486;47.478;19.036;2022-07-17T02:30:26;100912.94;;;17.61;48.45
56604;BME280;42486;47.478;19.036;2022-07-17T02:33:35;100920.75;;;17.53;48.55
56604;BME280;42486;47.478;19.036;2022-07-17T02:36:39;100922.28;;;17.46;48.63
56604;BME280;42486;47.478;19.036;2022-07-17T02:39:45;100921.03;;;17.50;48.37
56604;BME280;42486;47.478;19.036;2022-07-17T02:43:03;100923.00;;;17.48;48.32
56604;BME280;42486;47.478;19.036;2022-07-17T02:46:14;100931.19;;;17.45;48.42
56604;BME280;42486;47.478;19.036;2022-07-17T02:49:21;100933.75;;;17.27;48.64
56604;BME280;42486;47.478;19.036;2022-07-17T02:52:23;100938.63;;;17.22;49.01
56604;BME280;42486;47.478;19.036;2022-07-17T02:55:26;100938.19;;;17.27;49.00
56604;BME280;42486;47.478;19.036;2022-07-17T02:58:34;100940.84;;;17.07;49.49
56604;BME280;42486;47.478;19.036;2022-07-17T03:01:36;100938.09;;;16.89;50.04
56604;BME280;42486;47.478;19.036;2022-07-17T03:04:38;100938.25;;;16.78;50.63
56604;BME280;42486;47.478;19.036;2022-07-17T03:07:41;100941.66;;;16.69;50.82
56604;BME280;42486;47.478;19.036;2022-07-17T03:10:44;100941.81;;;16.58;51.17
56604;BME280;42486;47.478;19.036;2022-07-17T03:13:47;100939.13;;;16.48;51.37
56604;BME280;42486;47.478;19.036;2022-07-17T03:16:56;100949.69;;;16.38;51.67
56604;BME280;42486;47.478;19.036;2022-07-17T03:19:59;100949.00;;;16.36;51.64
56604;BME280;42486;47.478;19.036;2022-07-17T03:23:01;100955.22;;;16.35;51.63
56604;BME280;42486;47.478;19.036;2022-07-17T03:26:03;100957.97;;;16.24;51.70
56604;BME280;42486;47.478;19.036;2022-07-17T03:29:05;100956.72;;;16.18;51.59
56604;BME280;42486;47.478;19.036;2022-07-17T03:32:07;100965.44;;;16.19;51.61
56604;BME280;42486;47.478;19.036;2022-07-17T03:35:20;100970.31;;;16.23;51.40
56604;BME280;42486;47.478;19.036;2022-07-17T03:38:34;100968.16;;;16.38;51.09
56604;BME280;42486;47.478;19.036;2022-07-17T03:41:38;100970.91;;;16.37;50.63
56604;BME280;42486;47.478;19.036;2022-07-17T03:44:50;100970.53;;;16.51;49.84
56604;BME280;42486;47.478;19.036;2022-07-17T03:47:55;100978.75;;;16.58;50.16
56604;BME280;42486;47.478;19.036;2022-07-17T03:51:05;100976.81;;;16.60;49.53
56604;BME280;42486;47.478;19.036;2022-07-17T03:54:18;100983.72;;;16.61;49.07
56604;BME280;42486;47.478;19.036;2022-07-17T03:57:27;100989.28;;;16.67;49.53
56604;BME280;42486;47.478;19.036;2022-07-17T04:00:30;100983.09;;;16.78;49.19
56604;BME280;42486;47.478;19.036;2022-07-17T04:03:33;100995.84;;;16.73;49.52
56604;BME280;42486;47.478;19.036;2022-07-17T04:06:45;100994.75;;;16.76;49.62
56604;BME280;42486;47.478;19.036;2022-07-17T04:09:50;100995.16;;;16.81;49.67
56604;BME280;42486;47.478;19.036;2022-07-17T04:13:00;101001.28;;;16.91;49.46
56604;BME280;42486;47.478;19.036;2022-07-17T04:16:12;101005.63;;;16.92;49.15
56604;BME280;42486;47.478;19.036;2022-07-17T04:19:16;101006.03;;;16.97;48.97
56604;BME280;42486;47.478;19.036;2022-07-17T04:22:18;101003.37;;;17.07;49.46
56604;BME280;42486;47.478;19.036;2022-07-17T04:25:34;101010.59;;;17.14;49.41
56604;BME280;42486;47.478;19.036;2022-07-17T04:28:38;101019.66;;;17.12;48.99
56604;BME280;42486;47.478;19.036;2022-07-17T04:31:48;101016.03;;;17.13;48.90
56604;BME280;42486;47.478;19.036;2022-07-17T04:34:57;101023.41;;;17.09;48.71
56604;BME280;42486;47.478;19.036;2022-07-17T04:38:06;101017.00;;;17.22;48.37
56604;BME280;42486;47.478;19.036;2022-07-17T04:41:10;101024.38;;;17.28;47.74
56604;BME280;42486;47.478;19.036;2022-07-17T04:44:12;101027.50;;;17.60;47.08
56604;BME280;42486;47.478;19.036;2022-07-17T04:47:16;101028.97;;;18.02;45.83
56604;BME280;42486;47.478;19.036;2022-07-17T04:50:19;101034.66;;;20.22;40.93
56604;BME280;42486;47.478;19.036;2022-07-17T04:53:22;101033.03;;;19.95;41.06
56604;BME280;42486;47.478;19.036;2022-07-17T04:56:28;101038.53;;;18.96;43.27
56604;BME280;42486;47.478;19.036;2022-07-17T04:59:41;101042.12;;;18.21;44.82
56604;BME280;42486;47.478;19.036;2022-07-17T05:02:45;101037.03;;;18.10;45.32
56604;BME280;42486;47.478;19.036;2022-07-17T05:05:54;101038.75;;;18.57;44.17
56604;BME280;42486;47.478;19.036;2022-07-17T05:09:01;101052.16;;;19.19;42.88
56604;BME280;42486;47.478;19.036;2022-07-17T05:12:04;101045.25;;;18.90;43.03
56604;BME280;42486;47.478;19.036;2022-07-17T05:15:19;101048.16;;;18.97;43.04
56604;BME280;42486;47.478;19.036;2022-07-17T05:18:21;101053.97;;;19.00;42.61
56604;BME280;42486;47.478;19.036;2022-07-17T05:21:23;101058.72;;;20.55;39.82
56604;BME280;42486;47.478;19.036;2022-07-17T05:24:27;101060.34;;;21.06;38.56
56604;BME280;42486;47.478;19.036;2022-07-17T05:27:31;101058.19;;;20.17;40.16
56604;BME280;42486;47.478;19.036;2022-07-17T05:30:34;101058.94;;;19.57;41.27
56604;BME280;42486;47.478;19.036;2022-07-17T05:33:40;101060.72;;;19.12;41.91
56604;BME280;42486;47.478;19.036;2022-07-17T05:36:42;101059.88;;;19.12;42.09
56604;BME280;42486;47.478;19.036;2022-07-17T05:39:44;101064.41;;;19.20;41.84
56604;BME280;42486;47.478;19.036;2022-07-17T05:42:46;101072.59;;;19.26;41.12
56604;BME280;42486;47.478;19.036;2022-07-17T05:45:48;101067.53;;;18.97;41.09
56604;BME280;42486;47.478;19.036;2022-07-17T05:48:50;101072.75;;;19.07;40.92
56604;BME280;42486;47.478;19.036;2022-07-17T05:51:57;101069.81;;;19.10;41.27
56604;BME280;42486;47.478;19.036;2022-07-17T05:55:00;101069.41;;;19.23;41.33
56604;BME280;42486;47.478;19.036;2022-07-17T10:32:31;101092.38;;;26.63;24.44
56604;BME280;42486;47.478;19.036;2022-07-17T10:35:45;101093.00;;;26.24;25.29
56604;BME280;42486;47.478;19.036;2022-07-17T10:38:47;101082.03;;;26.53;24.29
56604;BME280;42486;47.478;19.036;2022-07-17T10:41:59;101085.91;;;26.09;25.26
56604;BME280;42486;47.478;19.036;2022-07-17T10:48:47;101096.50;;;26.24;24.29
56604;BME280;42486;47.478;19.036;2022-07-17T10:51:53;101090.44;;;27.05;23.51
56604;BME280;42486;47.478;19.036;2022-07-17T10:54:55;101098.13;;;27.41;23.63
56604;BME280;42486;47.478;19.036;2022-07-17T10:57:58;101100.63;;;27.30;23.41
56604;BME280;42486;47.478;19.036;2022-07-17T11:01:04;101088.69;;;26.77;22.91
56604;BME280;42486;47.478;19.036;2022-07-17T11:04:07;101069.25;;;26.62;23.68
56604;BME280;42486;47.478;19.036;2022-07-17T11:07:09;101069.44;;;27.49;23.05
56604;BME280;42486;47.478;19.036;2022-07-17T11:10:15;101069.25;;;27.37;21.62
56604;BME280;42486;47.478;19.036;2022-07-17T11:13:17;101075.91;;;26.31;22.83
56604;BME280;42486;47.478;19.036;2022-07-17T11:16:28;101077.56;;;26.32;22.99
56604;BME280;42486;47.478;19.036;2022-07-17T11:19:34;101061.03;;;26.64;22.94
56604;BME280;42486;47.478;19.036;2022-07-17T11:22:39;101052.09;;;27.25;21.93
56604;BME280;42486;47.478;19.036;2022-07-17T11:28:58;101048.16;;;27.67;21.22
56604;BME280;42486;47.478;19.036;2022-07-17T11:32:03;101046.91;;;27.83;20.85
56604;BME280;42486;47.478;19.036;2022-07-17T11:38:43;101048.69;;;28.16;20.79
56604;BME280;42486;47.478;19.036;2022-07-17T11:41:46;101040.72;;;28.54;19.71
56604;BME280;42486;47.478;19.036;2022-07-17T11:44:53;101038.41;;;28.51;19.76
56604;BME280;42486;47.478;19.036;2022-07-17T11:48:01;101038.69;;;28.81;19.92
56604;BME280;42486;47.478;19.036;2022-07-17T11:51:04;101029.19;;;29.10;19.44
56604;BME280;42486;47.478;19.036;2022-07-17T11:54:07;101026.66;;;28.52;19.61
56604;BME280;42486;47.478;19.036;2022-07-17T11:57:09;101017.28;;;28.61;20.24
56604;BME280;42486;47.478;19.036;2022-07-17T12:00:13;101019.87;;;28.74;20.26
56604;BME280;42486;47.478;19.036;2022-07-17T12:03:24;101027.81;;;28.11;20.16
56604;BME280;42486;47.478;19.036;2022-07-17T12:06:29;101026.84;;;28.57;20.31
56604;BME280;42486;47.478;19.036;2022-07-17T12:09:32;101021.94;;;27.69;20.29
56604;BME280;42486;47.478;19.036;2022-07-17T12:12:35;101026.87;;;27.85;20.83
56604;BME280;42486;47.478;19.036;2022-07-17T12:18:40;101017.34;;;27.96;21.43
56604;BME280;42486;47.478;19.036;2022-07-17T12:22:03;101011.06;;;28.16;20.20
56604;BME280;42486;47.478;19.036;2022-07-17T12:25:05;101016.94;;;27.93;19.87
56604;BME280;42486;47.478;19.036;2022-07-17T12:28:07;101006.87;;;27.41;20.12
56604;BME280;42486;47.478;19.036;2022-07-17T12:31:10;101008.09;;;27.59;20.30
56604;BME280;42486;47.478;19.036;2022-07-17T12:34:13;101009.91;;;27.92;20.06
56604;BME280;42486;47.478;19.036;2022-07-17T12:37:19;101005.50;;;28.17;20.14
56604;BME280;42486;47.478;19.036;2022-07-17T12:40:22;101009.94;;;27.85;19.93
56604;BME280;42486;47.478;19.036;2022-07-17T12:43:25;100996.28;;;27.80;19.95
56604;BME280;42486;47.478;19.036;2022-07-17T12:46:27;100999.28;;;28.17;20.53
56604;BME280;42486;47.478;19.036;2022-07-17T12:49:30;100993.44;;;28.71;19.85
56604;BME280;42486;47.478;19.036;2022-07-17T12:52:33;100994.56;;;28.89;18.97
56604;BME280;42486;47.478;19.036;2022-07-17T12:55:36;100992.00;;;28.30;19.68
56604;BME280;42486;47.478;19.036;2022-07-17T12:58:42;100992.06;;;28.56;19.10
56604;BME280;42486;47.478;19.036;2022-07-17T13:01:45;100985.84;;;28.17;18.99
56604;BME280;42486;47.478;19.036;2022-07-17T13:04:49;100969.06;;;28.21;19.08
56604;BME280;42486;47.478;19.036;2022-07-17T13:07:55;100986.81;;;27.57;19.44
56604;BME280;42486;47.478;19.036;2022-07-17T13:10:58;100980.41;;;27.85;19.11
56604;BME280;42486;47.478;19.036;2022-07-17T13:14:01;100971.66;;;27.96;19.03
56604;BME280;42486;47.478;19.036;2022-07-17T13:17:04;100972.34;;;28.30;18.28
56604;BME280;42486;47.478;19.036;2022-07-17T13:20:08;100972.69;;;28.02;18.92
56604;BME280;42486;47.478;19.036;2022-07-17T13:23:10;100975.56;;;28.00;18.55
56604;BME280;42486;47.478;19.036;2022-07-17T13:26:12;100973.59;;;27.82;18.55
56604;BME280;42486;47.478;19.036;2022-07-17T13:29:20;100967.56;;;27.87;18.81
56604;BME280;42486;47.478;19.036;2022-07-17T13:32:24;100966.13;;;27.84;18.63
56604;BME280;42486;47.478;19.036;2022-07-17T13:35:26;100979.78;;;27.63;18.96
56604;BME280;42486;47.478;19.036;2022-07-17T13:38:31;100962.63;;;27.71;19.00
56604;BME280;42486;47.478;19.036;2022-07-17T13:41:33;100963.69;;;27.63;19.04
56604;BME280;42486;47.478;19.036;2022-07-17T13:44:36;100970.75;;;28.22;18.72
56604;BME280;42486;47.478;19.036;2022-07-17T13:47:41;100963.25;;;28.24;17.92
56604;BME280;42486;47.478;19.036;2022-07-17T13:50:44;100957.44;;;28.34;17.38
56604;BME280;42486;47.478;19.036;2022-07-17T13:53:47;100961.44;;;28.25;17.57
56604;BME280;42486;47.478;19.036;2022-07-17T13:56:50;100958.81;;;28.05;17.86
56604;BME280;42486;47.478;19.036;2022-07-17T13:59:54;100954.50;;;27.97;18.00
56604;BME280;42486;47.478;19.036;2022-07-17T14:02:57;100953.75;;;28.22;17.67
56604;BME280;42486;47.478;19.036;2022-07-17T14:06:01;100953.72;;;28.67;17.59
56604;BME280;42486;47.478;19.036;2022-07-17T14:09:03;100945.00;;;27.95;17.76
56604;BME280;42486;47.478;19.036;2022-07-17T14:12:06;100950.28;;;27.56;18.49
56604;BME280;42486;47.478;19.036;2022-07-17T14:15:09;100952.53;;;27.59;18.66
56604;BME280;42486;47.478;19.036;2022-07-17T14:18:12;100945.44;;;27.92;17.78
56604;BME280;42486;47.478;19.036;2022-07-17T14:21:15;100942.69;;;28.12;17.88
56604;BME280;42486;47.478;19.036;2022-07-17T14:24:18;100938.50;;;28.16;17.72
56604;BME280;42486;47.478;19.036;2022-07-17T14:27:21;100943.59;;;28.30;17.92
56604;BME280;42486;47.478;19.036;2022-07-17T14:30:24;100940.44;;;28.02;17.28
56604;BME280;42486;47.478;19.036;2022-07-17T14:33:31;100943.75;;;27.97;17.57
56604;BME280;42486;47.478;19.036;2022-07-17T14:36:34;100943.94;;;28.09;17.44
56604;BME280;42486;47.478;19.036;2022-07-17T14:39:36;100927.50;;;28.24;17.01
56604;BME280;42486;47.478;19.036;2022-07-17T14:42:39;100927.75;;;28.22;17.48
56604;BME280;42486;47.478;19.036;2022-07-17T14:45:41;100938.50;;;28.22;17.59
56604;BME280;42486;47.478;19.036;2022-07-17T14:48:44;100930.25;;;28.10;17.07
56604;BME280;42486;47.478;19.036;2022-07-17T14:51:49;100936.53;;;27.98;17.41
56604;BME280;42486;47.478;19.036;2022-07-17T14:54:55;100922.63;;;28.14;17.34
56604;BME280;42486;47.478;19.036;2022-07-17T14:58:01;100923.19;;;28.23;16.84
56604;BME280;42486;47.478;19.036;2022-07-17T15:01:03;100930.59;;;27.76;18.00
56604;BME280;42486;47.478;19.036;2022-07-17T15:04:10;100929.38;;;27.72;18.04
56604;BME280;42486;47.478;19.036;2022-07-17T15:07:13;100935.41;;;27.54;17.38
56604;BME280;42486;47.478;19.036;2022-07-17T15:10:15;100927.16;;;27.42;17.43
56604;BME280;42486;47.478;19.036;2022-07-17T15:13:19;100929.22;;;27.53;18.30
56604;BME280;42486;47.478;19.036;2022-07-17T15:16:22;100927.31;;;27.67;18.11
56604;BME280;42486;47.478;19.036;2022-07-17T15:19:27;100925.72;;;27.46;17.72
56604;BME280;42486;47.478;19.036;2022-07-17T15:22:30;100921.72;;;27.82;17.92
56604;BME280;42486;47.478;19.036;2022-07-17T15:25:34;100920.91;;;27.75;18.39
56604;BME280;42486;47.478;19.036;2022-07-17T15:28:36;100921.31;;;27.72;18.11
56604;BME280;42486;47.478;19.036;2022-07-17T15:31:41;100911.19;;;27.80;17.96
56604;BME280;42486;47.478;19.036;2022-07-17T15:34:44;100916.19;;;27.57;18.55
56604;BME280;42486;47.478;19.036;2022-07-17T15:37:47;100919.13;;;27.42;19.34
56604;BME280;42486;47.478;19.036;2022-07-17T15:40:50;100914.41;;;27.11;19.80
56604;BME280;42486;47.478;19.036;2022-07-17T15:43:54;100913.16;;;27.07;20.02
56604;BME280;42486;47.478;19.036;2022-07-17T15:46:58;100912.75;;;27.23;20.13
56604;BME280;42486;47.478;19.036;2022-07-17T15:50:12;100905.09;;;27.40;19.69
56604;BME280;42486;47.478;19.036;2022-07-17T15:53:15;100908.81;;;27.12;19.59
56604;BME280;42486;47.478;19.036;2022-07-17T15:56:18;100913.59;;;27.04;19.57
56604;BME280;42486;47.478;19.036;2022-07-17T15:59:20;100904.72;;;27.30;19.76
56604;BME280;42486;47.478;19.036;2022-07-17T16:02:23;100901.84;;;26.85;20.17
56604;BME280;42486;47.478;19.036;2022-07-17T16:05:27;100901.66;;;26.86;19.30
56604;BME280;42486;47.478;19.036;2022-07-17T16:08:31;100902.44;;;27.07;19.54
56604;BME280;42486;47.478;19.036;2022-07-17T16:11:33;100894.44;;;26.87;19.34
56604;BME280;42486;47.478;19.036;2022-07-17T16:14:35;100898.94;;;26.66;19.89
56604;BME280;42486;47.478;19.036;2022-07-17T16:17:37;100902.88;;;26.84;20.33
56604;BME280;42486;47.478;19.036;2022-07-17T16:20:40;100907.00;;;27.13;20.57
56604;BME280;42486;47.478;19.036;2022-07-17T16:23:46;100917.91;;;26.91;20.32
56604;BME280;42486;47.478;19.036;2022-07-17T16:26:50;100915.88;;;26.73;20.87
56604;BME280;42486;47.478;19.036;2022-07-17T16:29:52;100919.47;;;26.32;21.36
56604;BME280;42486;47.478;19.036;2022-07-17T16:32:55;100920.47;;;26.18;21.67
56604;BME280;42486;47.478;19.036;2022-07-17T16:35:58;100920.66;;;26.10;21.35
56604;BME280;42486;47.478;19.036;2022-07-17T16:39:02;100914.69;;;26.08;21.44
56604;BME280;42486;47.478;19.036;2022-07-17T16:42:09;100919.28;;;25.79;21.41
56604;BME280;42486;47.478;19.036;2022-07-17T16:45:11;100917.22;;;25.75;21.49
56604;BME280;42486;47.478;19.036;2022-07-17T16:48:15;100913.84;;;25.66;21.35
56604;BME280;42486;47.478;19.036;2022-07-17T16:51:17;100918.06;;;25.47;21.65
56604;BME280;42486;47.478;19.036;2022-07-17T16:54:26;100909.06;;;25.55;21.49
56604;BME280;42486;47.478;19.036;2022-07-17T16:57:29;100907.84;;;25.57;21.80
56604;BME280;42486;47.478;19.036;2022-07-17T17:00:31;100908.47;;;25.59;21.83
56604;BME280;42486;47.478;19.036;2022-07-17T17:03:35;100899.06;;;25.70;21.98
56604;BME280;42486;47.478;19.036;2022-07-17T17:06:39;100905.78;;;25.94;21.54
56604;BME280;42486;47.478;19.036;2022-07-17T17:09:45;100887.03;;;26.01;21.28
56604;BME280;42486;47.478;19.036;2022-07-17T17:12:49;100899.38;;;25.95;21.30
56604;BME280;42486;47.478;19.036;2022-07-17T17:15:55;100900.94;;;25.76;21.21
56604;BME280;42486;47.478;19.036;2022-07-17T17:18:57;100896.62;;;25.75;21.50
56604;BME280;42486;47.478;19.036;2022-07-17T17:22:01;100897.03;;;25.72;21.64
56604;BME280;42486;47.478;19.036;2022-07-17T17:25:05;100902.16;;;25.74;21.89
56604;BME280;42486;47.478;19.036;2022-07-17T17:28:09;100905.34;;;25.49;21.08
56604;BME280;42486;47.478;19.036;2022-07-17T17:31:14;100896.44;;;25.42;20.60
56604;BME280;42486;47.478;19.036;2022-07-17T17:34:19;100894.75;;;25.34;21.04
56604;BME280;42486;47.478;19.036;2022-07-17T17:37:21;100897.00;;;25.31;21.51
56604;BME280;42486;47.478;19.036;2022-07-17T17:40:25;100892.62;;;25.23;21.09
56604;BME280;42486;47.478;19.036;2022-07-17T17:43:28;100896.97;;;25.24;21.42
56604;BME280;42486;47.478;19.036;2022-07-17T17:46:30;100892.72;;;25.08;21.54
56604;BME280;42486;47.478;19.036;2022-07-17T17:49:33;100901.31;;;25.03;22.00
56604;BME280;42486;47.478;19.036;2022-07-17T17:52:38;100904.38;;;25.00;22.41
56604;BME280;42486;47.478;19.036;2022-07-17T17:55:41;100901.47;;;24.95;22.79
56604;BME280;42486;47.478;19.036;2022-07-17T17:58:44;100900.75;;;24.87;23.03
56604;BME280;42486;47.478;19.036;2022-07-17T18:01:48;100909.13;;;24.77;23.40
56604;BME280;42486;47.478;19.036;2022-07-17T18:04:51;100902.19;;;24.61;23.66
56604;BME280;42486;47.478;19.036;2022-07-17T18:07:59;100900.12;;;24.42;24.16
56604;BME280;42486;47.478;19.036;2022-07-17T18:11:01;100903.94;;;24.32;24.44
56604;BME280;42486;47.478;19.036;2022-07-17T18:14:04;100898.16;;;24.29;24.67
56604;BME280;42486;47.478;19.036;2022-07-17T18:17:11;100898.00;;;24.15;24.85
56604;BME280;42486;47.478;19.036;2022-07-17T18:20:16;100903.22;;;24.24;24.93
56604;BME280;42486;47.478;19.036;2022-07-17T18:23:19;100912.75;;;24.11;25.27
56604;BME280;42486;47.478;19.036;2022-07-17T18:26:26;100906.03;;;24.01;25.25
56604;BME280;42486;47.478;19.036;2022-07-17T18:29:29;100916.66;;;23.94;25.47
56604;BME280;42486;47.478;19.036;2022-07-17T18:32:31;100922.81;;;23.94;25.36
56604;BME280;42486;47.478;19.036;2022-07-17T18:35:34;100919.44;;;23.86;25.58
56604;BME280;42486;47.478;19.036;2022-07-17T18:38:42;100928.37;;;23.78;25.89
56604;BME280;42486;47.478;19.036;2022-07-17T18:41:45;100928.91;;;23.73;26.15
56604;BME280;42486;47.478;19.036;2022-07-17T18:44:48;100927.41;;;23.56;26.49
56604;BME280;42486;47.478;19.036;2022-07-17T18:47:51;100941.41;;;23.43;27.20
56604;BME280;42486;47.478;19.036;2022-07-17T18:50:54;100934.84;;;23.31;26.87
56604;BME280;42486;47.478;19.036;2022-07-17T18:53:56;100936.84;;;23.14;26.91
56604;BME280;42486;47.478;19.036;2022-07-17T18:57:02;100942.53;;;23.11;27.34
56604;BME280;42486;47.478;19.036;2022-07-17T19:00:16;100952.47;;;22.94;27.70
56604;BME280;42486;47.478;19.036;2022-07-17T19:03:18;100957.34;;;22.91;27.26
56604;BME280;42486;47.478;19.036;2022-07-17T19:06:22;100953.78;;;22.75;27.54
56604;BME280;42486;47.478;19.036;2022-07-17T19:09:26;100958.87;;;22.62;27.71
56604;BME280;42486;47.478;19.036;2022-07-17T19:12:32;100961.72;;;22.60;27.71
56604;BME280;42486;47.478;19.036;2022-07-17T19:15:39;100970.09;;;22.49;27.58
56604;BME280;42486;47.478;19.036;2022-07-17T19:18:44;100967.97;;;22.45;27.94
56604;BME280;42486;47.478;19.036;2022-07-17T19:21:48;100971.53;;;22.37;28.16
56604;BME280;42486;47.478;19.036;2022-07-17T19:24:55;100973.94;;;22.24;28.17
56604;BME280;42486;47.478;19.036;2022-07-17T19:27:58;100984.59;;;22.15;28.36
56604;BME280;42486;47.478;19.036;2022-07-17T19:31:00;100986.94;;;22.10;28.21
56604;BME280;42486;47.478;19.036;2022-07-17T19:34:02;100988.41;;;22.21;28.31
56604;BME280;42486;47.478;19.036;2022-07-17T19:37:05;100999.87;;;22.22;28.10
56604;BME280;42486;47.478;19.036;2022-07-17T19:40:07;100995.06;;;22.09;27.97
56604;BME280;42486;47.478;19.036;2022-07-17T19:43:10;101002.94;;;22.02;28.09
56604;BME280;42486;47.478;19.036;2022-07-17T19:46:12;101001.59;;;21.98;28.32
56604;BME280;42486;47.478;19.036;2022-07-17T19:49:14;101008.06;;;22.04;28.31
56604;BME280;42486;47.478;19.036;2022-07-17T19:52:17;101002.63;;;21.97;28.29
56604;BME280;42486;47.478;19.036;2022-07-17T19:55:22;101010.81;;;21.79;28.55
56604;BME280;42486;47.478;19.036;2022-07-17T19:58:29;101004.72;;;21.62;28.80
56604;BME280;42486;47.478;19.036;2022-07-17T20:01:44;101003.37;;;21.58;29.00
56604;BME280;42486;47.478;19.036;2022-07-17T20:04:49;101004.38;;;21.57;29.13
56604;BME280;42486;47.478;19.036;2022-07-17T20:07:57;101006.53;;;21.53;29.12
56604;BME280;42486;47.478;19.036;2022-07-17T20:11:01;101009.19;;;21.53;29.00
56604;BME280;42486;47.478;19.036;2022-07-17T20:14:04;101010.37;;;21.43;29.07
56604;BME280;42486;47.478;19.036;2022-07-17T20:17:09;101014.50;;;21.37;29.17
56604;BME280;42486;47.478;19.036;2022-07-17T20:20:16;101019.66;;;21.30;29.28
56604;BME280;42486;47.478;19.036;2022-07-17T20:23:20;101018.84;;;21.38;29.47
56604;BME280;42486;47.478;19.036;2022-07-17T20:26:25;101021.13;;;21.25;29.52
56604;BME280;42486;47.478;19.036;2022-07-17T20:29:35;101022.47;;;21.21;29.73
56604;BME280;42486;47.478;19.036;2022-07-17T20:32:44;101024.78;;;21.32;29.89
56604;BME280;42486;47.478;19.036;2022-07-17T20:35:47;101028.28;;;21.32;29.86
56604;BME280;42486;47.478;19.036;2022-07-17T20:38:56;101027.78;;;21.21;30.13
56604;BME280;42486;47.478;19.036;2022-07-17T20:42:02;101027.31;;;21.17;30.38